Weather observations for the past three days for
Langley Air Force Base
Imperial (Metric)
Date Time (edt) Wind (mph) Vis. (mi.) Weather Sky Cond. Temperature (ºF) Relative Humidity Wind Chill (°F) Heat Index (°F) Pressure Precipitation (in)
Air Dwpt 6 hour altimeter (in) sea level (mb) 1 hr 3 hr 6 hr
Max. Min.
10 09:55 NW 7 10.00 Fair CLR 74.5 56.1 53% 29.95 1014.8
10 08:55 W 6 10.00 Fair CLR 69.4 59.2 70% 29.94 1014.5
10 07:55 SW 6 10.00 Fair CLR 64.4 59.7 64.9 59.9 85% 29.93 1014.2
10 06:55 W 3 10.00 Fair CLR 61 57.9 90% 29.89 1012.8
10 05:55 S 3 10.00 Fair CLR 61.5 57.9 88% 29.88 1012.5
10 04:55 Calm 10.00 Fair CLR 61.9 57 84% 29.86 1011.8
10 03:55 SW 7 10.00 Fair CLR 62.2 57.4 84% 29.85 1011.4
10 02:55 SW 7 9.00 Fair CLR 63.3 57 80% 29.85 1011.4
10 01:55 SW 9 10.00 Fair CLR 64.2 57.6 73 62.6 79% 29.85 1011.4
10 00:55 SW 6 10.00 Fair CLR 64.9 56.8 75% 29.86 1011.8
09 23:55 SW 8 10.00 Fair CLR 66.6 56.8 71% 29.85 1011.4
09 22:55 S 6 10.00 Fair CLR 69.4 56.7 64% 29.84 1011.1
09 21:55 S 8 10.00 Fair CLR 69.8 56.1 62% 29.84 1011.1
09 20:55 S 7 10.00 Fair CLR 71.6 54.1 54% 29.82 1010.4
09 19:55 S 9 10.00 Fair CLR 73.2 52.3 78.6 73.2 48% 29.81 1010.1
09 18:55 SW 12 10.00 Fair CLR 75.6 52.2 44% 78 29.8 1009.8
09 17:55 SW 10 10.00 Overcast OVC085 76.1 50.7 41% 78 29.79 1009.4
09 16:55 W 10 10.00 Partly Cloudy SCT100 77.9 49.5 37% 78 29.8 1009.8
09 15:55 SW 15 10.00 A Few Clouds FEW070 77.5 49.1 37% 78 29.8 1009.8
09 14:55 SW 14 10.00 Fair CLR 76.8 48.6 37% 78 29.82 1010.4
09 13:55 S 15 G 20 10.00 A Few Clouds FEW200 75.6 48.2 75.6 63.5 38% 78 29.82 1010.4
09 12:55 S 13 10.00 Partly Cloudy FEW039 SCT050 72.1 54 53% 29.84 1011.1
09 11:55 S 10 10.00 A Few Clouds FEW180 70.5 59.4 68% 29.88 1012.5
09 10:55 S 12 10.00 Partly Cloudy SCT039 SCT200 69.4 57.2 65% 29.91 1013.5
09 09:55 S 9 10.00 Mostly Cloudy BKN049 BKN070 66.4 55 67% 29.92 1013.8
09 08:55 S 9 10.00 Partly Cloudy SCT060 66.7 53.2 62% 29.93 1014.2
09 07:55 S 6 10.00 Fair CLR 63.3 55.9 63.3 55.4 77% 29.94 1014.5
09 06:55 S 3 10.00 Fair CLR 57 52.9 86% 29.94 1014.5
09 05:55 S 6 10.00 Fair CLR 56.7 52.9 87% 29.94 1014.5
09 04:55 S 6 10.00 Fair CLR 57.6 52.2 82% 29.94 1014.5
09 03:55 S 6 10.00 Fair CLR 58.5 51.6 78% 29.95 1014.8
09 02:55 S 9 10.00 Fair CLR 59.4 50.7 73% 29.95 1014.8
09 01:55 S 13 10.00 Fair CLR 59.5 48.9 61.3 59.5 68% 29.97 1015.5
09 00:55 S 12 10.00 Fair CLR 60.3 47.7 63% 29.97 1015.5
08 23:55 S 12 10.00 Fair CLR 60.3 48.4 65% 29.97 1015.5
08 21:55 S 9 10.00 Fair CLR 59.9 46.8 62% 29.99 1016.2
08 20:55 SE 10 10.00 Fair CLR 61 47.5 61% 29.97 1015.5
08 19:55 SE 8 10.00 Fair CLR 61.2 46.2 69.3 61.2 58% 29.95 1014.8
08 18:55 SE 12 10.00 Fair CLR 63.3 43.3 48% 29.94 1014.5
08 17:55 SE 10 10.00 Fair CLR 64.6 41.5 43% 29.95 1014.8
08 16:55 SE 10 10.00 Fair CLR 65.8 40.8 40% 29.95 1014.8
08 15:55 SE 13 10.00 Fair CLR 69.1 37.2 31% 29.96 1015.2
08 14:55 SE 8 10.00 Fair CLR 67.3 35.6 31% 29.98 1015.9
08 13:55 SE 8 10.00 Fair CLR 66.6 30.6 66.6 55.4 26% 30 1016.5
08 12:55 NE 8 10.00 Fair CLR 64.8 37.9 37% 30.02 1017.2
08 11:55 E 7 10.00 Fair CLR 63 41.4 45% 30.04 1017.9
08 09:55 N 7 10.00 Fair CLR 61.2 45.3 56% 30.03 1017.6
08 08:55 N 8 10.00 Fair CLR 59.5 47.3 64% 30.02 1017.2
08 07:55 N 8 10.00 Fair CLR 55.2 47.5 55.2 46.6 75% 30 1016.5
08 06:55 NW 5 10.00 Fair CLR 50.9 46.9 86% 29.98 1015.9
08 05:55 W 5 9.00 Fair CLR 49.5 46.9 91% 48 29.95 1014.8
08 04:55 NW 6 10.00 Fair CLR 50 47.5 91% 48 29.93 1014.2
08 03:55 Calm 10.00 Fair CLR 47.8 45.9 93% 29.92 1013.8
08 02:55 W 3 10.00 Fair CLR 46.6 44.4 92% 29.91 1013.5
08 01:55 W 3 10.00 Fair CLR 49.5 45.7 54.7 49.3 87% 29.89 1012.8
08 00:55 NW 6 10.00 Fair CLR 50.7 46.9 87% 29.9 1013.2
07 23:55 W 6 10.00 Fair CLR 51.3 48.4 90% 29.88 1012.5
07 22:55 W 5 10.00 A Few Clouds FEW095 FEW110 51.3 48.4 90% 29.87 1012.1
07 21:55 W 6 10.00 A Few Clouds FEW018 52.5 50.2 92% 29.87 1012.1
07 20:55 SW 5 10.00 Overcast BKN020 OVC070 53.6 51.1 91% 29.84 1011.1
07 19:55 E 3 10.00 Overcast BKN021 OVC065 54.9 49.5 56.1 53.8 82% 29.82 1010.4 0.09
07 18:55 N 7 10.00 Overcast FEW035 OVC055 54.7 49.3 82% 29.81 1010.1 0.06
07 17:55 N 6 7.00 Rain FEW003 BKN025 BKN030 OVC039 55.9 49.1 78% 29.83 1010.8 0.03
07 16:55 NE 5 10.00 Overcast SCT012 BKN023 BKN028 OVC037 55.8 50.7 83% 29.82 1010.4
07 15:55 E 8 10.00 Overcast SCT012 OVC037 55.4 50.7 84% 29.81 1010.1
07 14:55 E 10 10.00 Overcast OVC038 54.3 49.6 84% 29.82 1010.4
07 13:55 E 13 10.00 Light Rain FEW020 SCT026 OVC037 55 50 60.1 54.7 83% 29.84 1011.1 0.04 0.24
07 12:55 NE 16 6.00 Light Rain FEW017 OVC033 55.9 50.9 83% 29.85 1011.4 0.07
07 11:55 NE 18 2.75 Rain BKN002 BKN016 OVC028 55.6 51.4 86% 29.85 1011.4 0.04
07 10:55 NE 16 5.00 Light Rain OVC027 56.5 50.7 81% 29.87 1012.1 0.02 0.09
Date Time (edt) Wind (mph) Vis. (mi.) Weather Sky Cond. Air Dwpt Max. Min. Relative Humidity Wind Chill (°F) Heat Index (°F) altimeter (in) sea level (mb) 1 hr 3 hr 6 hr
6 hour
Temperature (ºF) Pressure Precipitation (in)